KGPT Airport (Gulfport-Biloxi Intl) Information

FAA: GPT - ICAO: KGPT

KGPT Airport Location

State Mississippi
County Harrison
City Gulfport
KGPT Airport is 3 miles northeast of Gulfport, MS.
Latitude 30-24-26.1690N
Longitude 089-04-12.3450W
Elevation 28ft

KGPT Airport METARs

METAR KGPT 181253Z 00000KT 10SM CLR 01/M01 A3021 RMK AO2 SLP230 T00061011
Altimeter 30.21"
Temperature 0.6°C (33.1°F)
Wind 0° at 0KT
Clouds Skies are clear.
Visibility 10.0mi
Time observed: 2022-01-18T12:53:00Z

KGPT Airport Details

Status Operational
Activation N/A
Ownership Public
Usage Public
Chart NEW ORLEANS
ATC on-site Yes
Beacon schedule sunset-sunrise
Beacon color clear green

KGPT Airport Contacts

Owner GULFPORT-BILOXI RGNL APT AUTH
Owner address 14035-L AIRPORT RD, GULFPORT, MS 39503
Owner phone 228-863-5951
Manager JIM WEBB
Manager address 2020 EASTOVER DR, JACKSON, MS 39211
Manager phone 601-982-5414

KGPT Airport (Gulfport-Biloxi Intl) Radio Frequencies

KGPT (Airport) Radio Frequencies

UNICOM 122.95
Common traffic advisory frequency (CTAF) 123.7